Station: Shark Bay Airport  

  Atmospheric Gas Attenuation - ITU Rec 676-11   ----------------- dB/100km -----------------
Date Time Temp RH % AH g/m3 Dew Point Wind Direction Speed kph Gust kph Barometer mB Rainfall Since 9am 24GHz 47GHz 76GHz 122GHz 134GHz 241GHz
08/05 09:20 22.8 32 6.5 5.3 35 41 1021.3 0 14.8 20.8 28.7 74.8 64.6 221.0
08/05 09:10 22.7 33 6.67 5.6 32 39 1021.2 0 15.1 21.0 29.3 76.4 66.5 227.7
08/05 09:00 22.4 33 6.55 5.4 30 46 1021.1 0 14.9 20.9 29.0 75.6 65.5 223.9
08/05 08:50 22.1 34 6.64 5.5 28 35 1021.2 0 15.1 21.1 29.4 76.7 66.7 228.2
08/05 08:39 22 35 6.79 5.8 28 33 1021.1 0 15.4 21.4 29.9 78.1 68.4 234.3
08/05 08:30 21.8 35 6.71 5.7 28 39 1021 0 15.3 21.3 29.7 77.6 67.7 231.8
08/05 08:20 21.4 38 7.12 6.5 30 33 1021 0 16.1 21.9 31.3 81.7 72.7 249.1
08/05 08:10 21 40 7.33 6.9 26 30 1021 0 16.6 22.3 32.2 84.1 75.4 258.8
08/05 08:00 20.4 44 7.78 7.7 22 30 1020.8 0 17.5 23.1 34.0 88.9 81.2 279.1
08/05 07:50 19.7 48 8.15 8.4 22 24 1020.9 0 18.4 23.8 35.6 93.3 86.4 297.1
08/05 07:40 19.1 50 8.2 8.4 20 24 1020.8 0 18.5 24.1 36.1 94.5 87.6 301.4
08/05 07:30 18.5 52 8.23 8.5 20 26 1020.6 0 18.6 24.3 36.4 95.5 88.7 304.9
08/05 07:20 18.1 53 8.19 8.4 20 24 1020.7 0 18.5 24.3 36.5 95.6 88.6 304.7
08/05 07:10 17.7 54 8.15 8.3 20 22 1020.6 0 18.4 24.4 36.5 95.6 88.6 304.5
08/05 07:00 17.5 54 8.05 8.1 19 24 1020.5 0 18.2 24.3 36.2 94.8 87.5 300.9
08/05 06:50 17.7 54 8.15 8.3 19 20 1020.5 0 18.4 24.4 36.5 95.6 88.6 304.4
08/05 06:40 17.8 54 8.2 8.4 20 24 1020.4 0 18.5 24.4 36.6 96.0 89.1 306.2
08/05 06:30 18.2 53 8.24 8.5 20 26 1020.2 0 18.6 24.4 36.6 95.9 89.1 306.4
08/05 06:20 18.3 53 8.29 8.6 22 26 1020.2 0 18.7 24.4 36.7 96.3 89.6 308.1
08/05 06:10 18.4 52 8.18 8.4 22 26 1020.1 0 18.5 24.2 36.3 95.0 88.1 303.0
08/05 06:00 18.5 52 8.23 8.5 22 28 1019.9 0 18.6 24.3 36.4 95.4 88.6 304.7
08/05 05:50 18.6 52 8.28 8.6 24 28 1019.9 0 18.7 24.3 36.6 95.8 89.1 306.5
08/05 05:40 18.5 52 8.23 8.5 22 28 1019.8 0 18.6 24.2 36.4 95.4 88.6 304.7
08/05 05:30 18.3 53 8.29 8.6 20 28 1019.7 0 18.7 24.4 36.7 96.2 89.6 308.0
08/05 05:20 18.2 55 8.55 9 20 24 1019.8 0 19.3 24.8 37.8 99.0 92.9 319.7
08/05 05:10 18.2 55 8.55 9 22 22 1019.7 0 19.3 24.8 37.8 99.0 92.9 319.7
08/05 05:00 18.4 54 8.49 8.9 22 28 1019.7 0 19.1 24.7 37.4 98.1 91.9 316.3
08/05 04:50 18.3 54 8.44 8.8 22 26 1019.6 0 19.0 24.6 37.3 97.7 91.4 314.5
08/05 04:40 18.5 53 8.38 8.7 20 24 1019.6 0 18.9 24.5 37.0 96.9 90.4 311.1
08/05 04:30 18.7 51 8.16 8.4 22 26 1019.5 0 18.4 24.1 36.1 94.4 87.5 300.9
08/05 04:20 18.8 50 8.05 8.2 20 24 1019.5 0 18.2 23.9 35.6 93.2 86.0 295.8
08/05 04:10 19.1 49 8.03 8.1 22 26 1019.5 0 18.1 23.8 35.4 92.7 85.5 293.8
08/05 04:00 19 49 7.98 8.1 22 28 1019.3 0 18.0 23.7 35.3 92.3 85.0 292.0
08/05 03:50 19.1 50 8.2 8.4 20 24 1019.4 0 18.5 24.0 36.0 94.3 87.5 301.0
08/05 03:40 19.4 49 8.17 8.4 22 24 1019.5 0 18.4 23.9 35.8 93.7 86.8 298.7
08/05 03:30 19.4 50 8.34 8.7 22 28 1019.4 0 18.8 24.2 36.4 95.4 88.9 305.9
08/05 03:20 19.4 51 8.51 9 20 24 1019.5 0 19.1 24.4 37.0 97.1 91.0 313.2
08/05 03:10 19.5 52 8.73 9.4 24 26 1019.5 0 19.6 24.7 37.8 99.1 93.6 322.3
08/05 03:00 19.2 54 8.9 9.7 20 26 1019.6 0 20.0 25.1 38.6 101.2 96.0 330.9
08/05 02:50 19.3 54 8.96 9.8 19 20 1019.7 0 20.1 25.1 38.8 101.7 96.7 333.1
08/05 02:40 19.3 54 8.96 9.8 19 22 1019.7 0 20.1 25.1 38.8 101.7 96.7 333.1
08/05 02:30 19.4 54 9.01 9.9 20 26 1019.6 0 20.2 25.2 38.9 102.1 97.2 334.9
08/05 02:20 19.3 54 8.96 9.8 20 24 1019.8 0 20.1 25.1 38.8 101.7 96.7 333.1
08/05 02:10 19.5 54 9.06 10 19 22 1019.7 0 20.3 25.2 39.1 102.5 97.7 336.6
08/05 02:00 19.4 54 9.01 9.9 19 24 1019.6 0 20.2 25.2 38.9 102.1 97.2 334.9
08/05 01:50 19.4 54 9.01 9.9 19 20 1019.8 0 20.2 25.2 38.9 102.1 97.2 334.9
08/05 01:40 19.5 53 8.89 9.7 20 22 1019.7 0 19.9 25.0 38.4 100.8 95.6 329.2
08/05 01:30 19.7 53 9 9.9 20 24 1019.6 0 20.1 25.1 38.7 101.6 96.7 333.2
08/05 01:20 19.7 54 9.17 10.1 19 20 1019.7 0 20.5 25.3 39.4 103.3 98.8 340.6
08/05 01:10 19.9 53 9.11 10 22 26 1019.7 0 20.4 25.2 39.1 102.5 97.8 337.1
08/05 01:00 19.9 53 9.11 10 20 24 1019.6 0 20.4 25.2 39.1 102.5 97.8 337.1
08/05 00:50 20 52 8.99 9.9 20 24 1019.7 0 20.1 25.0 38.6 101.1 96.2 331.5
08/05 00:40 19.9 53 9.11 10 19 20 1019.7 0 20.4 25.2 39.1 102.5 97.8 337.1
08/05 00:30 19.9 53 9.11 10 19 24 1019.6 0 20.4 25.2 39.1 102.5 97.8 337.1
08/05 00:20 19.9 54 9.28 10.3 17 20 1019.7 0 20.7 25.5 39.7 104.2 99.9 344.6
08/05 00:10 20 53 9.16 10.1 19 20 1019.8 0 20.5 25.2 39.2 102.9 98.3 338.9
08/05 00:00 20.2 52 9.09 10 19 24 1019.6 0 20.3 25.1 38.8 101.9 97.2 335.0
07/05 23:50 20.3 52 9.14 10.1 19 20 1019.6 0 20.4 25.1 39.0 102.3 97.7 336.7
07/05 23:40 20.3 51 8.97 9.8 17 20 1019.7 0 20.1 24.9 38.3 100.6 95.6 329.4
07/05 23:30 20.6 49 8.77 9.5 20 24 1019.6 0 19.6 24.5 37.5 98.2 92.8 319.6
07/05 23:20 20.7 49 8.82 9.6 19 20 1019.8 0 19.7 24.5 37.6 98.6 93.3 321.4
07/05 23:10 20.7 50 9 9.9 19 20 1019.9 0 20.1 24.8 38.3 100.4 95.5 329.1
07/05 23:00 20.7 49 8.82 9.6 19 24 1019.9 0 19.7 24.5 37.6 98.6 93.3 321.4
07/05 22:50 20.9 49 8.92 9.8 19 22 1020 0 19.9 24.6 37.9 99.4 94.3 324.9
07/05 22:40 20.9 49 8.92 9.8 19 24 1020 0 19.9 24.6 37.9 99.4 94.3 324.9
07/05 22:30 20.8 48 8.69 9.4 17 22 1019.9 0 19.4 24.3 37.1 97.2 91.6 315.5
07/05 22:20 21 48 8.79 9.6 17 19 1020 0 19.6 24.4 37.4 97.9 92.6 319.0
07/05 22:10 21.1 46 8.47 9 19 24 1020 0 19.0 23.9 36.1 94.7 88.6 305.1
07/05 22:00 21 46 8.43 8.9 17 20 1019.8 0 18.9 23.9 36.0 94.4 88.2 303.7
07/05 21:50 21 46 8.43 8.9 19 20 1019.9 0 18.9 23.9 36.0 94.4 88.2 303.8
07/05 21:40 20.9 47 8.56 9.2 17 19 1019.8 0 19.2 24.1 36.6 95.8 89.9 309.6
07/05 21:30 20.6 49 8.77 9.5 17 20 1019.7 0 19.6 24.5 37.5 98.2 92.8 319.6
07/05 21:20 20.1 50 8.69 9.4 17 19 1019.8 0 19.5 24.5 37.4 98.0 92.4 318.2
07/05 21:10 19.8 50 8.54 9.1 15 17 1019.8 0 19.2 24.4 37.0 96.9 90.9 313.0
07/05 21:00 19.9 50 8.59 9.2 17 19 1019.6 0 19.3 24.4 37.1 97.3 91.4 314.7
07/05 20:50 19.8 50 8.54 9.1 15 17 1019.7 0 19.2 24.4 37.0 96.9 90.9 313.0
07/05 20:40 20.4 50 8.84 9.6 15 15 1019.6 0 19.8 24.6 37.8 99.1 93.9 323.4
07/05 20:30 20.4 52 9.2 10.2 17 20 1019.4 0 20.5 25.2 39.1 102.7 98.3 338.9
07/05 20:20 20 55 9.5 10.7 17 17 1019.5 0 21.2 25.8 40.5 106.3 102.5 353.7
07/05 20:10 19.9 55 9.45 10.6 15 17 1019.4 0 21.1 25.7 40.3 105.9 102.0 351.9
07/05 20:00 20.1 54 9.39 10.5 15 17 1019.1 0 20.9 25.5 40.0 105.0 101.0 348.3
07/05 19:50 20.4 53 9.38 10.5 15 17 1019.1 0 20.9 25.4 39.8 104.5 100.5 346.6
07/05 19:40 20.6 51 9.13 10.1 15 17 1019 0 20.4 25.0 38.8 101.7 97.1 334.9
07/05 19:30 20.7 50 9 9.9 15 17 1018.8 0 20.1 24.8 38.2 100.3 95.4 328.8
07/05 19:20 20.8 47 8.51 9.1 15 17 1018.7 0 19.1 24.0 36.4 95.3 89.3 307.6
07/05 19:10 21 45 8.24 8.6 15 15 1018.6 0 18.5 23.6 35.3 92.5 85.9 295.5
07/05 19:00 20.8 43 7.79 7.8 15 17 1018.3 0 17.6 23.0 33.8 88.4 80.8 277.5
07/05 18:50 21 39 7.14 6.5 13 13 1018.4 0 16.2 22.0 31.4 82.1 73.1 250.6
07/05 18:40 21.5 38 7.16 6.6 13 15 1018.2 0 16.2 21.9 31.3 81.7 72.8 249.8
07/05 18:30 22.1 35 6.83 5.9 13 13 1018 0 15.5 21.3 29.9 78.1 68.6 235.0
07/05 18:20 22.7 33 6.67 5.6 13 13 1018 0 15.1 20.9 29.2 76.2 66.3 227.1
07/05 18:10 23.6 32 6.81 6 11 11 1017.9 0 15.4 20.9 29.3 76.6 67.1 230.0
07/05 18:00 24.4 30 6.68 5.7 11 13 1017.7 0 15.1 20.6 28.6 74.7 65.1 222.8
07/05 17:50 25.4 28 6.59 5.6 11 13 1017.8 0 14.9 20.2 28.0 73.0 63.3 216.9
07/05 17:40 26.1 26 6.37 5.1 15 15 1017.7 0 14.4 19.8 27.1 70.5 60.5 207.0
07/05 17:30 26.8 25 6.36 5.1 15 20 1017.5 0 14.3 19.6 26.8 69.9 59.9 204.9
07/05 17:20 27.3 24 6.28 5 17 20 1017.6 0 14.2 19.4 26.4 68.8 58.7 200.8
07/05 17:10 27.7 24 6.42 5.3 17 20 1017.6 0 14.4 19.5 26.7 69.6 59.9 204.8
07/05 17:00 27.9 23 6.22 4.9 19 24 1017.5 0 14.0 19.2 26.0 67.8 57.7 197.2
07/05 16:50 28.1 23 6.29 5 19 22 1017.6 0 14.2 19.3 26.2 68.2 58.3 199.3

Last Refresh: 08-May-2026 11:04:28

Bureau of Meteorology